Grass Lake, MI (49240)

03:42 AM EST del 22 Febbraio 2017 (GMT -0500)
Stull Rd Grup | | Change Station

Alt. 997 ft 42.29 °N, 84.26 °W | Updated 17 seconds ago

Coperto
Coperto
43.2 °F
Sembra 43 °F
N
0.0
Vento Variabile Vento da SO

Oggi
Massima -- | Minima -- °F
--% Possibilità di precip.
Ieri
Massima -- | Minima -- °F
Precip. -- in
Pressione 29.86 in
Visibilità 3.0 miglia
Nuvole Sereno
Raffreddamento del vento 43 °F
Punto di rugiada 38 °F
Umidità 83%
Piovosità 0.00 in
Spessore del manto nevoso Non disponibile.
7:22 AM 6:18 PM
Luna calante, 19% visible
SPECI KJXN 220802Z AUTO 25003KT 3SM -RA BR CLR 06/04 A2986 RMK AO2 P0000 T00560044
Pressione 29.86 in
Visibilità 3.0 miglia
Nuvole Sereno
Raffreddamento del vento 43 °F
Punto di rugiada 38 °F
Umidità 83%
Piovosità 0.00 in
Spessore del manto nevoso Non disponibile.
7:22 AM 6:18 PM
Luna calante, 19% visible
SPECI KJXN 220802Z AUTO 25003KT 3SM -RA BR CLR 06/04 A2986 RMK AO2 P0000 T00560044

Get Your Daily Forecast Email!

Thanks for signing up!

Be on the lookout for a verification email in your inbox.

You'll start receiving the daily forecast at 8 AM.

×

10-Day Weather Forecast

Almanac

Astronomia

Feb. 22, 2017 Alba Tramonto
Ora attuale
Crepuscolo civile
Crepuscolo nautico
Crepuscolo astronomico
Luna
Estensione della luce visibile
Lunghezza del giorno
Tomorrow will be .
, % of the Moon is Illuminated

Gli estremi di oggi

State Highs State Lows

Community

WunderPhotos

Upload Photos

1,962,540 foto caricate!

WunderBlog® & News

Nearby

Qualità dell'aria

  Qualità dell'aria Indice AQ Inquinante
Not available.

Profondità neve

Stazione Profondità Altitudine

Attività sismica

Città  Distanza Mag. Data & Ora
Minimo Magnitudo Mostrato è 2.5.

Temperature delle acque costiere

Località Temperatura

Stations

Stazioni meteo nelle vicinanze

Ubicazione della stazione Temp. Raffreddamento del vento Punto di rugiada Umidità Vento Precip. Alt. Aggiornato Tipo
                   

Watches & Warnings

There are currently no watches in effect.